Time;durP1;ratioP1;P1;durP2;ratioP2;P2;SDS_P1;SDS_P2;PMS_P1;PMS_P2;Temp;Humidity;BMP_temperature;BMP_pressure;BME280_temperature;BME280_humidity;BME280_pressure;Samples;Min_cycle;Max_cycle;Signal;HPM_P1;HPM_P2
2021/07/20 00:00:22;;;;;;;1.83;1.00;;;25.20;57.30;;;;;;5038050;28;20349;-74
2021/07/20 00:02:52;;;;;;;1.40;1.10;;;25.10;57.40;;;;;;5055947;28;20395;-75
2021/07/20 00:05:23;;;;;;;3.40;1.33;;;25.10;57.30;;;;;;5058008;28;20066;-75
2021/07/20 00:08:09;;;;;;;1.58;1.10;;;25.10;57.30;;;;;;5056864;28;20025;-75
2021/07/20 00:10:57;;;;;;;1.85;1.10;;;25.10;57.50;;;;;;5058485;28;20036;-75
2021/07/20 00:13:23;;;;;;;1.80;1.08;;;25.10;57.70;;;;;;5058066;28;20047;-74
2021/07/20 00:15:51;;;;;;;1.73;1.10;;;25.00;57.80;;;;;;5038956;28;20902;-74
2021/07/20 00:18:23;;;;;;;1.70;1.15;;;25.00;57.70;;;;;;5038238;28;20068;-74
2021/07/20 00:20:50;;;;;;;2.20;1.27;;;24.90;58.10;;;;;;5053672;28;20033;-75
2021/07/20 00:23:16;;;;;;;1.30;1.00;;;24.90;57.70;;;;;;5037802;28;20064;-74
2021/07/20 00:25:42;;;;;;;2.20;1.00;;;24.90;57.70;;;;;;5037944;28;20021;-74
2021/07/20 00:28:08;;;;;;;2.00;0.95;;;24.90;58.30;;;;;;5037986;28;20028;-75
2021/07/20 00:30:34;;;;;;;1.85;1.13;;;24.80;58.30;;;;;;5037792;28;20136;-74
2021/07/20 00:33:00;;;;;;;1.83;1.17;;;24.80;58.60;;;;;;5037825;28;20109;-75
2021/07/20 00:35:26;;;;;;;2.42;1.40;;;24.70;58.80;;;;;;5037806;28;20045;-74
2021/07/20 00:37:51;;;;;;;1.85;1.05;;;24.70;58.70;;;;;;5037745;28;20029;-74
2021/07/20 00:40:19;;;;;;;1.45;1.10;;;24.70;58.90;;;;;;5046261;28;20037;-74
2021/07/20 00:42:45;;;;;;;1.33;1.00;;;24.70;58.90;;;;;;5057679;28;20024;-75
2021/07/20 00:45:15;;;;;;;1.63;1.10;;;24.70;58.80;;;;;;5057418;28;20033;-75
2021/07/20 00:47:40;;;;;;;1.60;1.30;;;24.70;58.50;;;;;;5038115;28;20033;-74
2021/07/20 00:50:09;;;;;;;1.58;1.25;;;24.70;59.00;;;;;;5037526;28;20079;-74
2021/07/20 00:52:35;;;;;;;2.75;1.20;;;24.60;58.90;;;;;;5043271;28;20024;-74
2021/07/20 00:55:04;;;;;;;1.95;1.27;;;24.70;58.80;;;;;;5056520;28;20094;-74
2021/07/20 00:57:31;;;;;;;1.50;1.17;;;24.60;59.10;;;;;;5051745;28;20262;-74
2021/07/20 00:59:57;;;;;;;1.98;1.30;;;24.60;58.90;;;;;;5036865;28;20025;-74
2021/07/20 01:02:23;;;;;;;1.40;1.10;;;24.50;59.30;;;;;;5036330;28;20373;-74
2021/07/20 01:04:49;;;;;;;1.58;1.20;;;24.60;59.40;;;;;;5037238;28;20037;-74
2021/07/20 01:07:17;;;;;;;1.38;1.10;;;24.50;59.60;;;;;;5037073;28;20050;-74
2021/07/20 01:09:44;;;;;;;1.45;1.17;;;24.50;59.50;;;;;;5045133;28;20078;-74
2021/07/20 01:12:11;;;;;;;2.30;1.30;;;24.50;59.50;;;;;;5057189;28;20107;-75
2021/07/20 01:14:37;;;;;;;2.33;1.10;;;24.50;59.60;;;;;;5057008;28;20048;-74
2021/07/20 01:17:04;;;;;;;1.40;1.13;;;24.40;59.70;;;;;;5057028;28;20029;-74
2021/07/20 01:19:42;;;;;;;;;;;;;;;;;;;;;
2021/07/20 01:22:11;;;;;;;2.10;1.30;;;24.40;60.10;;;;;;5037154;28;20036;-74
2021/07/20 01:24:36;;;;;;;1.30;1.10;;;24.30;60.10;;;;;;5039837;28;20021;-75
2021/07/20 01:27:02;;;;;;;1.45;1.27;;;24.30;60.10;;;;;;5036956;28;20025;-75
2021/07/20 01:29:29;;;;;;;2.22;1.60;;;24.30;60.50;;;;;;5036555;28;20030;-74
2021/07/20 01:31:55;;;;;;;3.13;1.35;;;24.20;60.50;;;;;;5036630;28;20036;-74
2021/07/20 01:34:22;;;;;;;1.40;1.20;;;24.30;60.30;;;;;;5036613;28;20037;-75
2021/07/20 01:36:52;;;;;;;1.70;1.27;;;24.30;60.40;;;;;;5036796;28;20018;-74
2021/07/20 01:39:17;;;;;;;;;;;24.20;60.80;;;;;;5046335;28;20403;-74
2021/07/20 01:41:46;;;;;;;2.03;1.40;;;24.20;60.80;;;;;;5056540;28;20007;-74
2021/07/20 01:44:13;;;;;;;2.17;1.40;;;24.20;61.10;;;;;;5038766;28;20116;-74
2021/07/20 01:46:40;;;;;;;2.35;1.58;;;24.10;61.00;;;;;;5036575;28;20025;-75
2021/07/20 01:49:16;;;;;;;1.52;1.20;;;24.10;60.80;;;;;;5044033;28;20367;-74
2021/07/20 01:51:43;;;;;;;2.17;1.23;;;24.10;61.20;;;;;;5036530;28;20026;-74
2021/07/20 01:54:10;;;;;;;2.05;1.10;;;24.00;61.10;;;;;;5060735;28;20510;-74
2021/07/20 01:56:36;;;;;;;1.30;1.10;;;24.00;61.70;;;;;;5036265;28;20029;-74
2021/07/20 01:59:02;;;;;;;1.60;1.23;;;24.00;61.20;;;;;;5036246;28;20029;-74
2021/07/20 02:01:38;;;;;;;2.00;1.40;;;24.00;61.10;;;;;;5035800;28;20076;-74
2021/07/20 02:09:53;;;;;;;1.70;1.25;;;23.90;61.40;;;;;;5036042;28;20028;-74
2021/07/20 02:12:28;;;;;;;1.38;1.20;;;23.90;61.60;;;;;;5035125;28;20427;-75
2021/07/20 02:14:55;;;;;;;1.40;1.20;;;23.90;61.40;;;;;;5035854;28;20025;-74
2021/07/20 02:17:22;;;;;;;1.55;1.23;;;23.80;61.80;;;;;;5035649;28;20025;-74
2021/07/20 02:19:57;;;;;;;1.50;1.20;;;23.90;61.60;;;;;;5055372;28;20021;-74
2021/07/20 02:22:26;;;;;;;1.48;1.20;;;23.80;61.60;;;;;;5054357;28;20029;-74
2021/07/20 02:24:54;;;;;;;1.65;1.35;;;23.90;61.50;;;;;;5036059;28;20103;-74
2021/07/20 02:27:22;;;;;;;1.60;1.20;;;23.80;61.00;;;;;;5035884;28;20164;-74
2021/07/20 02:29:51;;;;;;;1.60;1.20;;;23.80;61.70;;;;;;5035473;28;20037;-74
2021/07/20 02:32:19;;;;;;;1.58;1.40;;;23.80;61.40;;;;;;5035644;28;20041;-74
2021/07/20 02:34:45;;;;;;;1.70;1.20;;;23.80;61.50;;;;;;5050913;28;20040;-74
2021/07/20 02:37:12;;;;;;;2.15;1.75;;;23.70;61.80;;;;;;5035463;28;20092;-74
2021/07/20 02:39:41;;;;;;;2.35;1.50;;;23.70;61.60;;;;;;5035358;28;20079;-74
2021/07/20 02:42:08;;;;;;;1.60;1.30;;;23.70;62.10;;;;;;5035555;28;20113;-75
2021/07/20 02:44:36;;;;;;;1.50;1.10;;;23.60;61.70;;;;;;5035473;28;20025;-74
2021/07/20 02:47:03;;;;;;;1.95;1.20;;;23.60;62.30;;;;;;5035399;28;20083;-74
2021/07/20 02:49:30;;;;;;;1.80;1.30;;;23.60;61.90;;;;;;5035247;28;20038;-74
2021/07/20 02:51:58;;;;;;;1.65;1.30;;;23.60;62.10;;;;;;5035327;28;20511;-74
2021/07/20 02:54:27;;;;;;;2.05;1.10;;;23.60;62.10;;;;;;5065769;28;20021;-74
2021/07/20 02:56:53;;;;;;;2.05;1.30;;;23.60;62.50;;;;;;5055262;28;20029;-74
2021/07/20 02:59:24;;;;;;;1.67;1.20;;;23.50;62.40;;;;;;5055315;28;20017;-74
2021/07/20 03:01:53;;;;;;;1.60;1.00;;;23.50;62.30;;;;;;5044455;28;20022;-74
2021/07/20 03:04:19;;;;;;;2.88;1.33;;;23.50;62.40;;;;;;5035251;28;20032;-74
2021/07/20 03:06:51;;;;;;;1.70;1.40;;;23.50;62.50;;;;;;5035005;28;20049;-74
2021/07/20 03:09:18;;;;;;;1.67;1.23;;;23.50;62.70;;;;;;5042145;28;20083;-74
2021/07/20 03:11:49;;;;;;;2.88;1.65;;;23.50;62.30;;;;;;5054099;28;20021;-74
2021/07/20 03:14:20;;;;;;;4.55;1.40;;;23.50;62.70;;;;;;5035029;28;20040;-74
2021/07/20 03:16:46;;;;;;;2.55;1.60;;;23.40;62.90;;;;;;5035075;28;20061;-74
2021/07/20 03:19:34;;;;;;;1.60;1.48;;;23.30;63.30;;;;;;5035042;28;20471;-74
2021/07/20 03:22:14;;;;;;;2.85;1.20;;;23.30;63.30;;;;;;5033668;28;20079;-74
2021/07/20 03:24:42;;;;;;;;;;;23.30;63.20;;;;;;5055223;28;20082;-75
2021/07/20 03:27:09;;;;;;;1.60;1.27;;;23.30;63.40;;;;;;5059080;28;19909;-74
2021/07/20 03:29:42;;;;;;;1.77;1.58;;;23.30;62.80;;;;;;5040570;28;20037;-74
2021/07/20 03:32:13;;;;;;;1.65;1.45;;;23.30;63.10;;;;;;5038892;28;20037;-74
2021/07/20 03:34:40;;;;;;;1.77;1.42;;;23.30;63.60;;;;;;5037823;28;20029;-74
2021/07/20 03:37:07;;;;;;;2.65;1.20;;;23.20;63.70;;;;;;5038894;28;20029;-74
2021/07/20 03:39:34;;;;;;;1.58;1.20;;;23.20;63.40;;;;;;5038740;28;20499;-74
2021/07/20 03:42:03;;;;;;;2.33;1.30;;;23.20;63.50;;;;;;5038794;28;20028;-75
2021/07/20 03:44:30;;;;;;;2.20;1.27;;;23.10;64.50;;;;;;5054007;28;20021;-74
2021/07/20 03:46:57;;;;;;;2.58;1.50;;;23.00;64.10;;;;;;5038800;28;20415;-74
2021/07/20 03:49:26;;;;;;;1.50;1.20;;;23.00;64.30;;;;;;5038571;28;20117;-74
2021/07/20 03:51:52;;;;;;;1.48;1.27;;;23.00;64.20;;;;;;5038817;28;20037;-74
2021/07/20 03:54:19;;;;;;;1.48;1.25;;;22.90;64.80;;;;;;5072833;28;20028;-74
2021/07/20 03:56:48;;;;;;;2.00;1.65;;;22.90;64.70;;;;;;5058740;28;20120;-74
2021/07/20 03:59:16;;;;;;;2.00;1.52;;;23.00;64.10;;;;;;5038356;28;20029;-74
2021/07/20 04:01:45;;;;;;;2.53;1.52;;;22.90;64.70;;;;;;5037184;28;20033;-74
2021/07/20 04:04:16;;;;;;;2.13;1.60;;;23.00;64.10;;;;;;5038440;28;20439;-74
2021/07/20 04:06:43;;;;;;;1.88;1.42;;;23.00;64.00;;;;;;5054675;28;20059;-74
2021/07/20 04:09:11;;;;;;;2.08;1.17;;;23.00;63.80;;;;;;5053256;28;20033;-74
2021/07/20 04:11:39;;;;;;;1.50;1.30;;;23.00;64.10;;;;;;5058349;28;20025;-74
2021/07/20 04:14:05;;;;;;;1.70;1.40;;;23.00;64.00;;;;;;5058202;28;20114;-74
2021/07/20 04:16:37;;;;;;;1.67;1.30;;;23.00;64.00;;;;;;5058446;28;20055;-74
2021/07/20 04:19:03;;;;;;;1.42;1.20;;;23.00;64.00;;;;;;5039302;28;20021;-74
2021/07/20 04:21:29;;;;;;;3.05;1.50;;;23.00;64.30;;;;;;5037034;28;20492;-75
2021/07/20 04:23:55;;;;;;;1.90;1.40;;;22.90;64.70;;;;;;5037170;28;20029;-77
2021/07/20 04:26:22;;;;;;;1.40;1.20;;;23.00;64.20;;;;;;5040592;28;20061;-75
2021/07/20 04:28:48;;;;;;;1.70;1.48;;;22.90;65.00;;;;;;5058088;28;20021;-74
2021/07/20 04:31:20;;;;;;;1.73;1.30;;;22.90;64.30;;;;;;5057914;28;20035;-74
2021/07/20 04:33:46;;;;;;;1.98;1.30;;;22.80;65.00;;;;;;5056273;28;20376;-74
2021/07/20 04:36:14;;;;;;;2.45;1.33;;;22.80;64.90;;;;;;5050846;28;20033;-74
2021/07/20 04:38:41;;;;;;;1.80;1.50;;;22.80;64.30;;;;;;5038009;28;20111;-74
2021/07/20 04:41:07;;;;;;;1.55;1.20;;;22.80;65.00;;;;;;5037667;28;20048;-74
2021/07/20 04:43:34;;;;;;;2.25;1.30;;;22.80;64.80;;;;;;5053342;28;20089;-74
2021/07/20 04:46:00;;;;;;;2.85;1.33;;;22.80;65.20;;;;;;5052187;28;20030;-73
2021/07/20 04:48:26;;;;;;;1.63;1.23;;;22.80;64.80;;;;;;5042608;28;20040;-74
2021/07/20 04:50:54;;;;;;;1.88;1.42;;;22.80;65.20;;;;;;5043498;28;20071;-74
2021/07/20 04:53:21;;;;;;;1.40;1.15;;;22.80;64.60;;;;;;5045531;28;20017;-74
2021/07/20 04:55:49;;;;;;;1.55;1.20;;;22.90;65.00;;;;;;5054431;28;20057;-74
2021/07/20 04:58:16;;;;;;;2.42;1.40;;;22.90;64.80;;;;;;5048073;28;20029;-74
2021/07/20 05:00:44;;;;;;;1.95;1.40;;;22.80;64.60;;;;;;5050659;28;20521;-74
2021/07/20 05:03:12;;;;;;;1.80;1.40;;;22.90;64.90;;;;;;5047601;28;20112;-73
2021/07/20 05:05:40;;;;;;;3.15;1.98;;;22.80;64.60;;;;;;5040537;28;20413;-74
2021/07/20 05:08:13;;;;;;;1.35;1.15;;;22.80;64.90;;;;;;5044022;28;20033;-73
2021/07/20 05:10:43;;;;;;;1.80;1.30;;;22.90;64.60;;;;;;5041926;28;20056;-75
2021/07/20 05:13:10;;;;;;;1.30;1.10;;;22.80;64.60;;;;;;5045990;28;20065;-74
2021/07/20 05:15:35;;;;;;;1.60;1.10;;;22.80;64.70;;;;;;5054791;28;20559;-75
2021/07/20 05:18:02;;;;;;;2.47;1.40;;;22.80;65.10;;;;;;5058885;28;20148;-79
2021/07/20 05:20:29;;;;;;;1.30;1.10;;;22.80;64.90;;;;;;5037873;28;20029;-76
2021/07/20 05:22:56;;;;;;;2.03;1.20;;;22.80;65.20;;;;;;5036593;28;20068;-75
2021/07/20 05:25:22;;;;;;;1.60;1.50;;;22.90;64.80;;;;;;5036434;28;20581;-75
2021/07/20 05:27:54;;;;;;;1.85;1.42;;;22.90;64.90;;;;;;5036353;28;20119;-75
2021/07/20 05:30:21;;;;;;;1.42;1.13;;;22.80;64.90;;;;;;5056324;28;20028;-75
2021/07/20 05:32:48;;;;;;;1.90;1.48;;;22.90;65.10;;;;;;5044766;28;20043;-76
2021/07/20 05:35:17;;;;;;;2.08;1.50;;;22.90;65.30;;;;;;5030252;28;20052;-75
2021/07/20 05:37:43;;;;;;;1.90;1.50;;;22.90;65.30;;;;;;5049264;28;20029;-75
2021/07/20 05:40:10;;;;;;;1.73;1.55;;;22.90;65.10;;;;;;5056983;28;20028;-76
2021/07/20 05:42:37;;;;;;;2.47;1.50;;;23.00;64.80;;;;;;5055329;28;20021;-76
2021/07/20 05:45:05;;;;;;;2.05;1.20;;;23.00;64.80;;;;;;5056506;28;20025;-76
2021/07/20 05:47:35;;;;;;;2.67;1.40;;;23.00;65.30;;;;;;5041548;28;20088;-76
2021/07/20 05:50:01;;;;;;;1.83;1.38;;;23.00;65.30;;;;;;5036501;28;20104;-76
2021/07/20 05:52:29;;;;;;;1.45;1.23;;;23.00;65.10;;;;;;5040289;28;20048;-75
2021/07/20 05:54:56;;;;;;;2.20;1.50;;;23.00;65.40;;;;;;5076424;28;20058;-76
2021/07/20 05:57:25;;;;;;;2.10;1.60;;;23.00;65.60;;;;;;5054159;28;20037;-76
2021/07/20 05:59:53;;;;;;;1.45;1.20;;;23.00;65.90;;;;;;5051641;28;20053;-75
2021/07/20 06:02:20;;;;;;;1.60;1.23;;;23.00;65.10;;;;;;5036460;28;20021;-76
2021/07/20 06:04:48;;;;;;;3.35;1.40;;;23.00;65.30;;;;;;5051296;28;20028;-75
2021/07/20 06:07:14;;;;;;;2.75;1.23;;;23.10;65.20;;;;;;5036213;28;20103;-75
2021/07/20 06:09:44;;;;;;;2.45;1.48;;;23.10;65.70;;;;;;5036455;28;20036;-76
2021/07/20 06:12:12;;;;;;;;;;;23.20;65.40;;;;;;5036417;28;20546;-76
2021/07/20 06:14:39;;;;;;;1.40;1.27;;;23.10;66.30;;;;;;5051506;28;20383;-75
2021/07/20 06:17:05;;;;;;;2.13;1.40;;;23.20;65.80;;;;;;5036099;28;20029;-75
2021/07/20 06:19:32;;;;;;;1.75;1.30;;;23.20;64.90;;;;;;5051283;28;20025;-75
2021/07/20 06:22:01;;;;;;;1.75;1.23;;;23.20;65.20;;;;;;5034530;28;20028;-76
2021/07/20 06:24:28;;;;;;;1.73;1.20;;;23.20;65.40;;;;;;5042722;28;20027;-77
